DAL1683 KMSP-KFLL
Flight info
| Callsign | DAL1683 |
|---|---|
| Flight time | 3h 4m |
| Altitude | 32000 |
| Route | RST1 ALO IRK STL Q19 HITMN ACORI TEEKY4 |
| Aircraft | A321/M-SDE3FGHIRWY/LB1 |
Departure
| Time | 2026-05-06 23:19 |
|---|---|
| Airport | Minneapolis–Saint Paul International Airport / Wold–Chamberlain Field (KMSP) |
Arrival
| Time | 2026-05-07 02:23 |
|---|---|
| Airport | Fort Lauderdale Hollywood International Airport (KFLL) |
| Time | Latitude | Longitude | Altitude | Speed | Heading |
|---|---|---|---|---|---|
| 2026-05-06 22:30 | 44.88330 | -93.21635 | 819 ft | 0 kts | 51° |
| 2026-05-06 22:31 | 44.88329 | -93.21635 | 819 ft | 0 kts | 51° |
| 2026-05-06 22:34 | 44.88329 | -93.21636 | 819 ft | 0 kts | 51° |
| 2026-05-06 22:48 | 44.88329 | -93.21637 | 825 ft | 0 kts | 51° |
| 2026-05-06 22:54 | 44.88328 | -93.21637 | 825 ft | 0 kts | 51° |
| 2026-05-06 23:01 | 44.88328 | -93.21638 | 825 ft | 0 kts | 51° |
| 2026-05-06 23:09 | 44.88320 | -93.21652 | 821 ft | 4 kts | 53° |
| 2026-05-06 23:09 | 44.88304 | -93.21682 | 821 ft | 4 kts | 46° |
| 2026-05-06 23:10 | 44.88286 | -93.21711 | 821 ft | 4 kts | 58° |
| 2026-05-06 23:10 | 44.88276 | -93.21744 | 825 ft | 4 kts | 88° |
| 2026-05-06 23:10 | 44.88280 | -93.21770 | 820 ft | 1 kts | 121° |
| 2026-05-06 23:10 | 44.88282 | -93.21774 | 820 ft | 2 kts | 121° |
| 2026-05-06 23:11 | 44.88282 | -93.21775 | 820 ft | 0 kts | 121° |
| 2026-05-06 23:13 | 44.88280 | -93.21772 | 820 ft | 3 kts | 121° |
| 2026-05-06 23:14 | 44.88241 | -93.21682 | 825 ft | 17 kts | 122° |
| 2026-05-06 23:14 | 44.88181 | -93.21546 | 825 ft | 16 kts | 122° |
| 2026-05-06 23:14 | 44.88124 | -93.21480 | 825 ft | 16 kts | 155° |
| 2026-05-06 23:14 | 44.88040 | -93.21376 | 822 ft | 16 kts | 126° |
| 2026-05-06 23:15 | 44.87970 | -93.21255 | 825 ft | 16 kts | 122° |
| 2026-05-06 23:15 | 44.87914 | -93.21125 | 823 ft | 16 kts | 121° |
| 2026-05-06 23:15 | 44.87858 | -93.20997 | 823 ft | 15 kts | 121° |
| 2026-05-06 23:15 | 44.87805 | -93.20874 | 826 ft | 15 kts | 121° |
| 2026-05-06 23:16 | 44.87752 | -93.20750 | 826 ft | 15 kts | 121° |
| 2026-05-06 23:16 | 44.87701 | -93.20630 | 826 ft | 14 kts | 121° |
| 2026-05-06 23:16 | 44.87650 | -93.20509 | 825 ft | 14 kts | 121° |
| 2026-05-06 23:16 | 44.87599 | -93.20388 | 825 ft | 14 kts | 121° |
| 2026-05-06 23:17 | 44.87549 | -93.20271 | 824 ft | 14 kts | 121° |
| 2026-05-06 23:17 | 44.87500 | -93.20155 | 822 ft | 14 kts | 121° |
| 2026-05-06 23:17 | 44.87432 | -93.20078 | 827 ft | 12 kts | 171° |
| 2026-05-06 23:17 | 44.87372 | -93.20139 | 827 ft | 12 kts | 257° |
| 2026-05-06 23:18 | 44.87409 | -93.20251 | 825 ft | 17 kts | 304° |
| 2026-05-06 23:18 | 44.87519 | -93.20506 | 822 ft | 56 kts | 301° |
| 2026-05-06 23:18 | 44.87837 | -93.21240 | 822 ft | 117 kts | 301° |
| 2026-05-06 23:18 | 44.88345 | -93.22424 | 843 ft | 160 kts | 301° |
| 2026-05-06 23:19 | 44.88929 | -93.23749 | 1519 ft | 154 kts | 301° |
| 2026-05-06 23:19 | 44.89435 | -93.25056 | 2247 ft | 152 kts | 290° |
| 2026-05-06 23:19 | 44.89535 | -93.26542 | 2825 ft | 157 kts | 267° |
| 2026-05-06 23:19 | 44.89343 | -93.28074 | 3267 ft | 161 kts | 262° |
| 2026-05-06 23:20 | 44.89077 | -93.29682 | 3444 ft | 178 kts | 258° |
| 2026-05-06 23:20 | 44.88418 | -93.31246 | 3604 ft | 199 kts | 222° |
| 2026-05-06 23:20 | 44.87121 | -93.31957 | 4003 ft | 208 kts | 188° |
| 2026-05-06 23:20 | 44.85689 | -93.31601 | 4423 ft | 214 kts | 158° |
| 2026-05-06 23:21 | 44.84349 | -93.30651 | 4814 ft | 217 kts | 158° |
| 2026-05-06 23:21 | 44.82913 | -93.29781 | 5058 ft | 234 kts | 161° |
| 2026-05-06 23:21 | 44.81333 | -93.28885 | 5267 ft | 257 kts | 161° |
| 2026-05-06 23:21 | 44.79610 | -93.27915 | 5606 ft | 274 kts | 161° |
| 2026-05-06 23:22 | 44.77853 | -93.26912 | 6264 ft | 278 kts | 160° |
| 2026-05-06 23:22 | 44.76050 | -93.25869 | 6950 ft | 282 kts | 161° |
| 2026-05-06 23:22 | 44.74227 | -93.24799 | 7588 ft | 286 kts | 160° |
| 2026-05-06 23:22 | 44.72375 | -93.23706 | 8237 ft | 291 kts | 160° |
| 2026-05-06 23:23 | 44.70498 | -93.22595 | 8886 ft | 295 kts | 160° |
| 2026-05-06 23:23 | 44.68589 | -93.21467 | 9554 ft | 300 kts | 160° |
| 2026-05-06 23:23 | 44.66653 | -93.20321 | 10181 ft | 305 kts | 160° |
| 2026-05-06 23:23 | 44.64630 | -93.19128 | 10365 ft | 326 kts | 160° |
| 2026-05-06 23:24 | 44.62479 | -93.17847 | 10508 ft | 347 kts | 159° |
| 2026-05-06 23:24 | 44.60228 | -93.16377 | 10630 ft | 366 kts | 156° |
| 2026-05-06 23:24 | 44.57899 | -93.14752 | 10912 ft | 379 kts | 155° |
| 2026-05-06 23:24 | 44.55533 | -93.13049 | 11414 ft | 385 kts | 155° |
| 2026-05-06 23:25 | 44.53137 | -93.11311 | 11970 ft | 389 kts | 155° |
| 2026-05-06 23:25 | 44.50720 | -93.09571 | 12531 ft | 393 kts | 155° |
| 2026-05-06 23:25 | 44.48263 | -93.07828 | 13109 ft | 397 kts | 156° |
| 2026-05-06 23:25 | 44.45781 | -93.06092 | 13666 ft | 400 kts | 156° |
| 2026-05-06 23:26 | 44.43271 | -93.04349 | 14183 ft | 404 kts | 156° |
| 2026-05-06 23:26 | 44.40741 | -93.02595 | 14683 ft | 407 kts | 156° |
| 2026-05-06 23:26 | 44.38192 | -93.00832 | 15164 ft | 411 kts | 156° |
| 2026-05-06 23:26 | 44.35624 | -92.99053 | 15663 ft | 413 kts | 156° |
| 2026-05-06 23:27 | 44.33068 | -92.97281 | 16134 ft | 417 kts | 156° |
| 2026-05-06 23:27 | 44.30462 | -92.95477 | 16612 ft | 420 kts | 157° |
| 2026-05-06 23:27 | 44.27835 | -92.93663 | 17081 ft | 423 kts | 157° |
| 2026-05-06 23:27 | 44.25188 | -92.91837 | 17532 ft | 426 kts | 157° |
| 2026-05-06 23:28 | 44.22524 | -92.89998 | 17977 ft | 429 kts | 157° |
| 2026-05-06 23:28 | 44.19840 | -92.88144 | 18403 ft | 432 kts | 157° |
| 2026-05-06 23:28 | 44.17136 | -92.86278 | 18772 ft | 435 kts | 157° |
| 2026-05-06 23:28 | 44.14416 | -92.84399 | 19164 ft | 438 kts | 157° |
| 2026-05-06 23:29 | 44.11678 | -92.82510 | 19558 ft | 440 kts | 157° |
| 2026-05-06 23:29 | 44.08919 | -92.80609 | 19994 ft | 442 kts | 157° |
| 2026-05-06 23:29 | 44.06158 | -92.78712 | 20383 ft | 444 kts | 157° |
| 2026-05-06 23:29 | 44.03372 | -92.76802 | 20764 ft | 447 kts | 157° |
| 2026-05-06 23:30 | 44.00579 | -92.74889 | 21155 ft | 449 kts | 157° |
| 2026-05-06 23:30 | 43.97766 | -92.72964 | 21517 ft | 451 kts | 158° |
| 2026-05-06 23:30 | 43.94977 | -92.71059 | 21898 ft | 454 kts | 158° |
| 2026-05-06 23:30 | 43.92125 | -92.69113 | 22279 ft | 456 kts | 158° |
| 2026-05-06 23:31 | 43.89271 | -92.67170 | 22675 ft | 458 kts | 158° |
| 2026-05-06 23:31 | 43.86402 | -92.65216 | 23036 ft | 461 kts | 158° |
| 2026-05-06 23:31 | 43.83518 | -92.63249 | 23393 ft | 463 kts | 158° |
| 2026-05-06 23:31 | 43.80606 | -92.61316 | 23725 ft | 464 kts | 161° |
| 2026-05-06 23:32 | 43.77569 | -92.59867 | 24002 ft | 460 kts | 170° |
| 2026-05-06 23:32 | 43.74441 | -92.59044 | 24308 ft | 456 kts | 179° |
| 2026-05-06 23:32 | 43.71287 | -92.58540 | 24612 ft | 457 kts | 179° |
| 2026-05-06 23:32 | 43.68119 | -92.58030 | 24918 ft | 459 kts | 179° |
| 2026-05-06 23:33 | 43.64944 | -92.57512 | 25217 ft | 460 kts | 179° |
| 2026-05-06 23:33 | 43.61755 | -92.56987 | 25512 ft | 462 kts | 179° |
| 2026-05-06 23:33 | 43.58557 | -92.56462 | 25788 ft | 463 kts | 179° |
| 2026-05-06 23:33 | 43.55351 | -92.55935 | 26085 ft | 464 kts | 179° |
| 2026-05-06 23:34 | 43.52138 | -92.55408 | 26367 ft | 466 kts | 179° |
| 2026-05-06 23:34 | 43.48917 | -92.54883 | 26648 ft | 467 kts | 179° |
| 2026-05-06 23:34 | 43.45681 | -92.54358 | 26913 ft | 468 kts | 179° |
| 2026-05-06 23:34 | 43.42480 | -92.53839 | 27184 ft | 470 kts | 179° |
| 2026-05-06 23:35 | 43.39226 | -92.53309 | 27437 ft | 471 kts | 179° |
| 2026-05-06 23:35 | 43.35970 | -92.52780 | 27740 ft | 472 kts | 179° |
| 2026-05-06 23:35 | 43.32710 | -92.52251 | 28042 ft | 472 kts | 179° |
| 2026-05-06 23:35 | 43.29453 | -92.51723 | 28417 ft | 470 kts | 180° |
| 2026-05-06 23:36 | 43.26210 | -92.51194 | 28786 ft | 469 kts | 180° |
| 2026-05-06 23:36 | 43.22976 | -92.50668 | 29143 ft | 467 kts | 180° |
| 2026-05-06 23:36 | 43.19748 | -92.50145 | 29477 ft | 466 kts | 180° |
| 2026-05-06 23:36 | 43.16534 | -92.49625 | 29852 ft | 464 kts | 180° |
| 2026-05-06 23:37 | 43.13328 | -92.49106 | 30188 ft | 463 kts | 180° |
| 2026-05-06 23:37 | 43.10131 | -92.48587 | 30456 ft | 462 kts | 180° |
| 2026-05-06 23:37 | 43.06938 | -92.48066 | 30708 ft | 462 kts | 180° |
| 2026-05-06 23:37 | 43.03751 | -92.47549 | 30965 ft | 461 kts | 181° |
| 2026-05-06 23:38 | 43.00564 | -92.47036 | 31221 ft | 461 kts | 181° |
| 2026-05-06 23:38 | 42.97383 | -92.46527 | 31455 ft | 460 kts | 181° |
| 2026-05-06 23:38 | 42.94205 | -92.46026 | 31733 ft | 458 kts | 181° |
| 2026-05-06 23:38 | 42.91039 | -92.45524 | 31988 ft | 458 kts | 182° |
| 2026-05-06 23:39 | 42.87879 | -92.45018 | 32075 ft | 455 kts | 182° |
| 2026-05-06 23:39 | 42.81612 | -92.44009 | 32088 ft | 452 kts | 182° |
| 2026-05-06 23:40 | 42.75364 | -92.43013 | 32078 ft | 452 kts | 182° |
| 2026-05-06 23:40 | 42.69111 | -92.42012 | 32074 ft | 452 kts | 182° |
| 2026-05-06 23:41 | 42.62895 | -92.41027 | 32072 ft | 452 kts | 182° |
| 2026-05-06 23:41 | 42.56654 | -92.40064 | 32044 ft | 449 kts | 185° |
| 2026-05-06 23:41 | 42.53571 | -92.40047 | 32056 ft | 438 kts | 192° |
| 2026-05-06 23:42 | 42.50521 | -92.40307 | 32060 ft | 438 kts | 192° |
| 2026-05-06 23:42 | 42.44434 | -92.40819 | 32064 ft | 438 kts | 192° |
| 2026-05-06 23:43 | 42.38346 | -92.41322 | 32074 ft | 438 kts | 192° |
| 2026-05-06 23:43 | 42.32264 | -92.41817 | 32072 ft | 437 kts | 193° |
| 2026-05-06 23:44 | 42.26238 | -92.42304 | 32095 ft | 436 kts | 193° |
| 2026-05-06 23:44 | 42.20174 | -92.42802 | 32097 ft | 435 kts | 193° |
| 2026-05-06 23:45 | 42.14133 | -92.43302 | 32077 ft | 434 kts | 193° |
| 2026-05-06 23:45 | 42.08111 | -92.43792 | 32095 ft | 433 kts | 193° |
| 2026-05-06 23:46 | 42.02108 | -92.44273 | 32103 ft | 432 kts | 193° |
| 2026-05-06 23:46 | 41.96118 | -92.44757 | 32086 ft | 431 kts | 194° |
| 2026-05-06 23:47 | 41.90140 | -92.45252 | 32098 ft | 430 kts | 194° |
| 2026-05-06 23:47 | 41.84173 | -92.45734 | 32109 ft | 429 kts | 194° |
| 2026-05-06 23:48 | 41.78227 | -92.46211 | 32110 ft | 428 kts | 194° |
| 2026-05-06 23:48 | 41.72292 | -92.46686 | 32087 ft | 426 kts | 195° |
| 2026-05-06 23:49 | 41.66374 | -92.47158 | 32113 ft | 425 kts | 195° |
| 2026-05-06 23:49 | 41.60511 | -92.47624 | 32112 ft | 424 kts | 195° |
| 2026-05-06 23:50 | 41.54628 | -92.48099 | 32116 ft | 423 kts | 195° |
| 2026-05-06 23:50 | 41.45828 | -92.48810 | 32112 ft | 420 kts | 195° |
| 2026-05-06 23:51 | 41.39996 | -92.49283 | 32119 ft | 419 kts | 195° |
| 2026-05-06 23:51 | 41.34181 | -92.49745 | 32118 ft | 418 kts | 195° |
| 2026-05-06 23:52 | 41.28376 | -92.50199 | 32081 ft | 417 kts | 195° |
| 2026-05-06 23:52 | 41.22595 | -92.50649 | 32098 ft | 416 kts | 196° |
| 2026-05-06 23:53 | 41.16822 | -92.51111 | 32102 ft | 415 kts | 196° |
| 2026-05-06 23:53 | 41.11051 | -92.51576 | 32106 ft | 415 kts | 196° |
| 2026-05-06 23:54 | 41.05286 | -92.52035 | 32075 ft | 416 kts | 196° |
| 2026-05-06 23:54 | 40.99482 | -92.52491 | 32077 ft | 419 kts | 196° |
| 2026-05-06 23:55 | 40.93645 | -92.52944 | 32078 ft | 421 kts | 195° |
| 2026-05-06 23:55 | 40.87796 | -92.53400 | 32033 ft | 421 kts | 196° |
| 2026-05-06 23:56 | 40.81935 | -92.53867 | 32105 ft | 423 kts | 196° |
| 2026-05-06 23:56 | 40.76095 | -92.54323 | 32113 ft | 422 kts | 195° |
| 2026-05-06 23:57 | 40.70235 | -92.54776 | 32111 ft | 422 kts | 196° |
| 2026-05-06 23:57 | 40.64374 | -92.55236 | 32111 ft | 422 kts | 195° |
| 2026-05-06 23:58 | 40.58504 | -92.55696 | 32112 ft | 422 kts | 195° |
| 2026-05-06 23:58 | 40.53638 | -92.56072 | 32114 ft | 422 kts | 196° |
| 2026-05-06 23:59 | 40.46820 | -92.56597 | 32112 ft | 422 kts | 195° |
| 2026-05-06 23:59 | 40.40963 | -92.57048 | 32097 ft | 421 kts | 196° |
| 2026-05-07 00:00 | 40.35112 | -92.57494 | 32108 ft | 421 kts | 196° |
| 2026-05-07 00:00 | 40.30254 | -92.57868 | 32116 ft | 421 kts | 196° |
| 2026-05-07 00:01 | 40.24410 | -92.58321 | 32116 ft | 421 kts | 196° |
| 2026-05-07 00:01 | 40.18540 | -92.58582 | 32075 ft | 433 kts | 188° |
| 2026-05-07 00:02 | 40.15514 | -92.57780 | 32085 ft | 458 kts | 174° |
| 2026-05-07 00:02 | 40.12560 | -92.55951 | 32089 ft | 485 kts | 159° |
| 2026-05-07 00:02 | 40.09913 | -92.53020 | 32090 ft | 513 kts | 142° |
| 2026-05-07 00:02 | 40.07678 | -92.49310 | 32110 ft | 522 kts | 138° |
| 2026-05-07 00:03 | 40.03284 | -92.41741 | 32103 ft | 523 kts | 138° |
| 2026-05-07 00:03 | 39.98871 | -92.34205 | 32074 ft | 523 kts | 139° |
| 2026-05-07 00:04 | 39.94435 | -92.26685 | 32085 ft | 524 kts | 140° |
| 2026-05-07 00:04 | 39.89991 | -92.19197 | 32099 ft | 527 kts | 140° |
| 2026-05-07 00:05 | 39.85507 | -92.11633 | 32101 ft | 527 kts | 140° |
| 2026-05-07 00:05 | 39.81025 | -92.04085 | 32106 ft | 527 kts | 140° |
| 2026-05-07 00:06 | 39.76539 | -91.96538 | 32065 ft | 528 kts | 141° |
| 2026-05-07 00:06 | 39.72043 | -91.88988 | 32059 ft | 529 kts | 142° |
| 2026-05-07 00:07 | 39.67521 | -91.81425 | 32068 ft | 531 kts | 142° |
| 2026-05-07 00:07 | 39.62978 | -91.73852 | 32081 ft | 532 kts | 142° |
| 2026-05-07 00:08 | 39.58422 | -91.66268 | 32084 ft | 533 kts | 142° |
| 2026-05-07 00:08 | 39.53857 | -91.58686 | 32090 ft | 535 kts | 143° |
| 2026-05-07 00:09 | 39.49269 | -91.51088 | 32070 ft | 536 kts | 144° |
| 2026-05-07 00:09 | 39.44674 | -91.43493 | 32082 ft | 536 kts | 144° |
| 2026-05-07 00:10 | 39.40091 | -91.35946 | 32081 ft | 537 kts | 144° |
| 2026-05-07 00:10 | 39.35477 | -91.28364 | 32083 ft | 537 kts | 144° |
| 2026-05-07 00:11 | 39.30851 | -91.20775 | 32098 ft | 539 kts | 144° |
| 2026-05-07 00:11 | 39.26206 | -91.13175 | 32091 ft | 539 kts | 144° |
| 2026-05-07 00:12 | 39.21564 | -91.05582 | 32091 ft | 538 kts | 144° |
| 2026-05-07 00:12 | 39.16916 | -90.98020 | 32090 ft | 538 kts | 144° |
| 2026-05-07 00:13 | 39.12263 | -90.90473 | 32085 ft | 538 kts | 144° |
| 2026-05-07 00:13 | 39.07610 | -90.82928 | 32100 ft | 539 kts | 144° |
| 2026-05-07 00:14 | 39.02969 | -90.75420 | 32083 ft | 539 kts | 144° |
| 2026-05-07 00:14 | 38.98304 | -90.67884 | 32082 ft | 538 kts | 144° |
| 2026-05-07 00:15 | 38.93639 | -90.60370 | 32076 ft | 537 kts | 144° |
| 2026-05-07 00:15 | 38.88974 | -90.52878 | 31988 ft | 537 kts | 144° |
| 2026-05-07 00:16 | 38.84287 | -90.45432 | 32083 ft | 535 kts | 146° |
| 2026-05-07 00:16 | 38.79457 | -90.38249 | 32084 ft | 530 kts | 148° |
| 2026-05-07 00:17 | 38.74559 | -90.31208 | 32071 ft | 529 kts | 148° |
| 2026-05-07 00:17 | 38.69680 | -90.24128 | 32070 ft | 530 kts | 147° |
| 2026-05-07 00:18 | 38.64835 | -90.17001 | 32004 ft | 530 kts | 146° |
| 2026-05-07 00:18 | 38.60002 | -90.09876 | 32079 ft | 530 kts | 147° |
| 2026-05-07 00:19 | 38.55157 | -90.02776 | 32085 ft | 529 kts | 147° |
| 2026-05-07 00:19 | 38.50336 | -89.95759 | 32062 ft | 529 kts | 147° |
| 2026-05-07 00:20 | 38.45473 | -89.88701 | 32061 ft | 529 kts | 147° |
| 2026-05-07 00:20 | 38.40609 | -89.81642 | 32067 ft | 529 kts | 147° |
| 2026-05-07 00:21 | 38.35740 | -89.74599 | 32073 ft | 529 kts | 147° |
| 2026-05-07 00:21 | 38.30873 | -89.67560 | 32089 ft | 529 kts | 147° |
| 2026-05-07 00:22 | 38.26042 | -89.60582 | 32088 ft | 529 kts | 147° |
| 2026-05-07 00:22 | 38.21173 | -89.53577 | 32089 ft | 528 kts | 147° |
| 2026-05-07 00:23 | 38.16306 | -89.46593 | 32070 ft | 527 kts | 147° |
| 2026-05-07 00:23 | 38.11431 | -89.39623 | 32084 ft | 528 kts | 147° |
| 2026-05-07 00:24 | 38.06550 | -89.32654 | 32088 ft | 527 kts | 147° |
| 2026-05-07 00:24 | 38.01678 | -89.25703 | 32090 ft | 527 kts | 147° |
| 2026-05-07 00:25 | 37.96812 | -89.18767 | 32067 ft | 526 kts | 147° |
| 2026-05-07 00:25 | 37.91944 | -89.11849 | 32039 ft | 526 kts | 147° |
| 2026-05-07 00:26 | 37.87105 | -89.05000 | 32065 ft | 525 kts | 147° |
| 2026-05-07 00:26 | 37.82225 | -88.98118 | 32074 ft | 525 kts | 147° |
| 2026-05-07 00:27 | 37.77354 | -88.91241 | 32078 ft | 525 kts | 147° |
| 2026-05-07 00:27 | 37.72481 | -88.84373 | 32037 ft | 524 kts | 147° |
| 2026-05-07 00:28 | 37.67607 | -88.77530 | 32067 ft | 524 kts | 147° |
| 2026-05-07 00:28 | 37.62726 | -88.70699 | 32078 ft | 524 kts | 147° |
| 2026-05-07 00:29 | 37.57850 | -88.63882 | 32088 ft | 523 kts | 147° |
| 2026-05-07 00:30 | 37.48104 | -88.50286 | 32058 ft | 522 kts | 147° |
| 2026-05-07 00:30 | 37.43264 | -88.43569 | 32304 ft | 520 kts | 147° |
| 2026-05-07 00:31 | 37.40834 | -88.40198 | 32563 ft | 519 kts | 147° |
| 2026-05-07 00:31 | 37.38410 | -88.36837 | 32823 ft | 518 kts | 147° |
| 2026-05-07 00:31 | 37.35986 | -88.33477 | 33025 ft | 518 kts | 147° |
| 2026-05-07 00:31 | 37.33560 | -88.30120 | 33060 ft | 517 kts | 147° |
| 2026-05-07 00:32 | 37.28718 | -88.23438 | 33056 ft | 517 kts | 147° |
| 2026-05-07 00:32 | 37.23884 | -88.16768 | 33054 ft | 516 kts | 147° |
| 2026-05-07 00:33 | 37.19074 | -88.10149 | 33058 ft | 515 kts | 147° |
| 2026-05-07 00:33 | 37.14231 | -88.03509 | 33061 ft | 517 kts | 147° |
| 2026-05-07 00:34 | 37.09376 | -87.96866 | 33061 ft | 517 kts | 147° |
| 2026-05-07 00:34 | 37.04522 | -87.90223 | 33055 ft | 517 kts | 147° |
| 2026-05-07 00:35 | 36.99670 | -87.83588 | 33062 ft | 517 kts | 147° |
| 2026-05-07 00:35 | 36.94812 | -87.76964 | 33004 ft | 516 kts | 146° |
| 2026-05-07 00:36 | 36.89945 | -87.70359 | 32985 ft | 517 kts | 146° |
| 2026-05-07 00:36 | 36.85095 | -87.63800 | 32997 ft | 518 kts | 146° |
| 2026-05-07 00:37 | 36.80197 | -87.57179 | 33004 ft | 519 kts | 146° |
| 2026-05-07 00:37 | 36.75287 | -87.50544 | 32983 ft | 520 kts | 146° |
| 2026-05-07 00:38 | 36.70377 | -87.43915 | 32977 ft | 521 kts | 146° |
| 2026-05-07 00:38 | 36.65433 | -87.37268 | 33012 ft | 522 kts | 146° |
| 2026-05-07 00:39 | 36.60488 | -87.30634 | 33006 ft | 523 kts | 146° |
| 2026-05-07 00:39 | 36.55537 | -87.24004 | 33043 ft | 523 kts | 147° |
| 2026-05-07 00:40 | 36.50615 | -87.17417 | 33046 ft | 523 kts | 147° |
| 2026-05-07 00:40 | 36.45659 | -87.10801 | 32987 ft | 521 kts | 147° |
| 2026-05-07 00:41 | 36.40714 | -87.04227 | 33047 ft | 520 kts | 147° |
| 2026-05-07 00:41 | 36.35775 | -86.97689 | 33039 ft | 519 kts | 147° |
| 2026-05-07 00:42 | 36.30838 | -86.91159 | 33023 ft | 518 kts | 147° |
| 2026-05-07 00:42 | 36.25919 | -86.84620 | 33018 ft | 518 kts | 147° |
| 2026-05-07 00:43 | 36.21030 | -86.78140 | 33019 ft | 518 kts | 147° |
| 2026-05-07 00:43 | 36.15877 | -86.72136 | 33011 ft | 493 kts | 159° |
| 2026-05-07 00:44 | 36.13021 | -86.69937 | 33024 ft | 475 kts | 167° |
| 2026-05-07 00:44 | 36.10061 | -86.68291 | 33034 ft | 459 kts | 175° |
| 2026-05-07 00:44 | 36.07059 | -86.67179 | 33035 ft | 442 kts | 182° |
| 2026-05-07 00:44 | 36.04068 | -86.66526 | 33032 ft | 434 kts | 186° |
| 2026-05-07 00:45 | 35.98097 | -86.65362 | 33037 ft | 434 kts | 185° |
| 2026-05-07 00:45 | 35.92123 | -86.64180 | 33037 ft | 435 kts | 185° |
| 2026-05-07 00:46 | 35.86189 | -86.63011 | 33035 ft | 434 kts | 185° |
| 2026-05-07 00:46 | 35.80205 | -86.61837 | 33043 ft | 435 kts | 185° |
| 2026-05-07 00:47 | 35.74231 | -86.60645 | 33037 ft | 435 kts | 185° |
| 2026-05-07 00:47 | 35.68248 | -86.59454 | 32978 ft | 435 kts | 185° |
| 2026-05-07 00:48 | 35.62262 | -86.58274 | 32983 ft | 436 kts | 185° |
| 2026-05-07 00:48 | 35.56267 | -86.57097 | 32991 ft | 436 kts | 185° |
| 2026-05-07 00:49 | 35.50269 | -86.55921 | 32992 ft | 437 kts | 185° |
| 2026-05-07 00:49 | 35.45273 | -86.54940 | 33000 ft | 437 kts | 185° |
| 2026-05-07 00:50 | 35.38279 | -86.53562 | 33014 ft | 439 kts | 185° |
| 2026-05-07 00:50 | 35.32245 | -86.52379 | 33019 ft | 439 kts | 185° |
| 2026-05-07 00:51 | 35.26210 | -86.51208 | 33018 ft | 438 kts | 185° |
| 2026-05-07 00:51 | 35.20228 | -86.50044 | 33018 ft | 438 kts | 185° |
| 2026-05-07 00:52 | 35.14211 | -86.48865 | 32982 ft | 437 kts | 185° |
| 2026-05-07 00:52 | 35.08202 | -86.47692 | 32981 ft | 437 kts | 185° |
| 2026-05-07 00:53 | 35.02185 | -86.46522 | 32990 ft | 437 kts | 185° |
| 2026-05-07 00:53 | 34.97195 | -86.45556 | 32980 ft | 437 kts | 185° |
| 2026-05-07 00:54 | 34.91180 | -86.44393 | 32998 ft | 439 kts | 184° |
| 2026-05-07 00:54 | 34.84135 | -86.43037 | 33016 ft | 442 kts | 184° |
| 2026-05-07 00:55 | 34.79091 | -86.42055 | 33016 ft | 442 kts | 184° |
| 2026-05-07 00:55 | 34.73021 | -86.40870 | 33005 ft | 442 kts | 184° |
| 2026-05-07 00:56 | 34.66943 | -86.39704 | 32951 ft | 442 kts | 184° |
| 2026-05-07 00:56 | 34.60861 | -86.38541 | 32947 ft | 443 kts | 184° |
| 2026-05-07 00:57 | 34.54777 | -86.37372 | 32949 ft | 443 kts | 184° |
| 2026-05-07 00:57 | 34.48685 | -86.36201 | 32960 ft | 443 kts | 184° |
| 2026-05-07 00:58 | 34.42632 | -86.35042 | 32975 ft | 443 kts | 184° |
| 2026-05-07 00:58 | 34.36519 | -86.33880 | 32973 ft | 446 kts | 183° |
| 2026-05-07 00:59 | 34.27319 | -86.32127 | 32995 ft | 446 kts | 183° |
| 2026-05-07 01:00 | 34.21188 | -86.30956 | 32998 ft | 446 kts | 183° |
| 2026-05-07 01:00 | 34.15061 | -86.29787 | 32955 ft | 446 kts | 182° |
| 2026-05-07 01:01 | 34.08923 | -86.28619 | 32959 ft | 447 kts | 182° |
| 2026-05-07 01:01 | 34.02760 | -86.27454 | 32954 ft | 449 kts | 182° |
| 2026-05-07 01:02 | 33.96616 | -86.26290 | 32947 ft | 450 kts | 182° |
| 2026-05-07 01:02 | 33.90430 | -86.25124 | 32941 ft | 450 kts | 182° |
| 2026-05-07 01:03 | 33.84232 | -86.23956 | 32916 ft | 452 kts | 181° |
| 2026-05-07 01:03 | 33.78014 | -86.22781 | 32924 ft | 453 kts | 181° |
| 2026-05-07 01:04 | 33.71774 | -86.21610 | 32950 ft | 454 kts | 181° |
| 2026-05-07 01:04 | 33.65527 | -86.20435 | 32961 ft | 455 kts | 181° |
| 2026-05-07 01:05 | 33.59304 | -86.19263 | 32962 ft | 459 kts | 180° |
| 2026-05-07 01:05 | 33.52959 | -86.18075 | 32973 ft | 463 kts | 179° |
| 2026-05-07 01:06 | 33.46585 | -86.16878 | 32966 ft | 464 kts | 179° |
| 2026-05-07 01:06 | 33.40182 | -86.15678 | 32963 ft | 466 kts | 179° |
| 2026-05-07 01:07 | 33.33774 | -86.14483 | 32960 ft | 467 kts | 179° |
| 2026-05-07 01:07 | 33.27352 | -86.13287 | 32962 ft | 467 kts | 179° |
| 2026-05-07 01:08 | 33.20927 | -86.12092 | 32961 ft | 467 kts | 179° |
| 2026-05-07 01:08 | 33.14548 | -86.10898 | 32964 ft | 467 kts | 179° |
| 2026-05-07 01:09 | 33.08121 | -86.09699 | 32945 ft | 467 kts | 179° |
| 2026-05-07 01:09 | 33.01676 | -86.08514 | 32938 ft | 469 kts | 179° |
| 2026-05-07 01:10 | 32.95214 | -86.07330 | 32937 ft | 470 kts | 178° |
| 2026-05-07 01:10 | 32.88740 | -86.06134 | 32940 ft | 471 kts | 178° |
| 2026-05-07 01:11 | 32.82253 | -86.04926 | 32927 ft | 472 kts | 179° |
| 2026-05-07 01:11 | 32.75759 | -86.03731 | 32930 ft | 473 kts | 179° |
| 2026-05-07 01:12 | 32.69255 | -86.02536 | 32933 ft | 473 kts | 179° |
| 2026-05-07 01:12 | 32.62787 | -86.01345 | 32936 ft | 474 kts | 179° |
| 2026-05-07 01:13 | 32.56263 | -86.00147 | 32940 ft | 474 kts | 179° |
| 2026-05-07 01:13 | 32.49736 | -85.98955 | 32941 ft | 475 kts | 179° |
| 2026-05-07 01:14 | 32.43203 | -85.97762 | 32952 ft | 475 kts | 179° |
| 2026-05-07 01:14 | 32.36654 | -85.96570 | 32957 ft | 475 kts | 179° |
| 2026-05-07 01:15 | 32.30112 | -85.95377 | 32967 ft | 475 kts | 179° |
| 2026-05-07 01:15 | 32.23614 | -85.94195 | 32945 ft | 476 kts | 179° |
| 2026-05-07 01:16 | 32.17073 | -85.93010 | 32967 ft | 475 kts | 179° |
| 2026-05-07 01:16 | 32.10531 | -85.91824 | 32981 ft | 475 kts | 179° |
| 2026-05-07 01:17 | 32.03991 | -85.90637 | 32983 ft | 475 kts | 179° |
| 2026-05-07 01:17 | 31.97449 | -85.89451 | 32966 ft | 476 kts | 179° |
| 2026-05-07 01:18 | 31.90895 | -85.88271 | 32972 ft | 476 kts | 179° |
| 2026-05-07 01:18 | 31.84392 | -85.87099 | 32978 ft | 476 kts | 179° |
| 2026-05-07 01:19 | 31.77989 | -85.84648 | 32984 ft | 497 kts | 158° |
| 2026-05-07 01:19 | 31.75062 | -85.82412 | 32985 ft | 507 kts | 147° |
| 2026-05-07 01:19 | 31.72474 | -85.79544 | 32962 ft | 516 kts | 137° |
| 2026-05-07 01:20 | 31.67678 | -85.73266 | 32965 ft | 517 kts | 137° |
| 2026-05-07 01:20 | 31.62852 | -85.67007 | 32979 ft | 517 kts | 137° |
| 2026-05-07 01:21 | 31.58017 | -85.60747 | 32992 ft | 518 kts | 137° |
| 2026-05-07 01:21 | 31.53176 | -85.54479 | 33003 ft | 518 kts | 137° |
| 2026-05-07 01:22 | 31.48330 | -85.48223 | 33035 ft | 518 kts | 137° |
| 2026-05-07 01:22 | 31.43486 | -85.41966 | 33009 ft | 518 kts | 137° |
| 2026-05-07 01:23 | 31.38667 | -85.35758 | 33013 ft | 519 kts | 137° |
| 2026-05-07 01:23 | 31.33804 | -85.29512 | 33000 ft | 519 kts | 137° |
| 2026-05-07 01:24 | 31.28928 | -85.23260 | 32999 ft | 519 kts | 137° |
| 2026-05-07 01:24 | 31.24060 | -85.17022 | 33003 ft | 519 kts | 137° |
| 2026-05-07 01:25 | 31.19191 | -85.10788 | 32998 ft | 519 kts | 137° |
| 2026-05-07 01:25 | 31.14313 | -85.04565 | 32960 ft | 519 kts | 137° |
| 2026-05-07 01:26 | 31.09433 | -84.98342 | 32975 ft | 520 kts | 137° |
| 2026-05-07 01:26 | 31.04572 | -84.92159 | 32986 ft | 520 kts | 137° |
| 2026-05-07 01:27 | 30.99677 | -84.85932 | 33002 ft | 521 kts | 137° |
| 2026-05-07 01:27 | 30.94776 | -84.79722 | 33006 ft | 521 kts | 137° |
| 2026-05-07 01:28 | 30.89861 | -84.73505 | 32990 ft | 521 kts | 137° |
| 2026-05-07 01:28 | 30.84951 | -84.67301 | 32986 ft | 521 kts | 137° |
| 2026-05-07 01:29 | 30.80033 | -84.61085 | 32979 ft | 522 kts | 137° |
| 2026-05-07 01:29 | 30.75102 | -84.54870 | 32986 ft | 523 kts | 137° |
| 2026-05-07 01:30 | 30.70159 | -84.48647 | 32999 ft | 524 kts | 137° |
| 2026-05-07 01:30 | 30.65240 | -84.42463 | 33004 ft | 524 kts | 137° |
| 2026-05-07 01:31 | 30.60287 | -84.36249 | 33031 ft | 524 kts | 137° |
| 2026-05-07 01:31 | 30.55321 | -84.30042 | 33039 ft | 524 kts | 138° |
| 2026-05-07 01:32 | 30.50354 | -84.23848 | 33040 ft | 524 kts | 137° |
| 2026-05-07 01:32 | 30.45395 | -84.17652 | 33047 ft | 524 kts | 137° |
| 2026-05-07 01:33 | 30.40421 | -84.11449 | 33054 ft | 524 kts | 137° |
| 2026-05-07 01:33 | 30.34988 | -84.06074 | 33056 ft | 511 kts | 154° |
| 2026-05-07 01:34 | 30.28866 | -84.01987 | 33050 ft | 508 kts | 156° |
| 2026-05-07 01:34 | 30.22738 | -83.97923 | 33031 ft | 507 kts | 157° |
| 2026-05-07 01:35 | 30.16618 | -83.93859 | 33040 ft | 507 kts | 157° |
| 2026-05-07 01:35 | 30.10497 | -83.89800 | 33058 ft | 507 kts | 157° |
| 2026-05-07 01:36 | 30.04366 | -83.85754 | 33059 ft | 508 kts | 157° |
| 2026-05-07 01:36 | 29.98224 | -83.81711 | 33065 ft | 508 kts | 157° |
| 2026-05-07 01:37 | 29.92074 | -83.77671 | 33056 ft | 509 kts | 157° |
| 2026-05-07 01:37 | 29.85919 | -83.73623 | 33068 ft | 509 kts | 157° |
| 2026-05-07 01:38 | 29.79773 | -83.69570 | 33075 ft | 509 kts | 157° |
| 2026-05-07 01:38 | 29.73614 | -83.65526 | 33083 ft | 509 kts | 157° |
| 2026-05-07 01:39 | 29.67494 | -83.61528 | 33084 ft | 509 kts | 157° |
| 2026-05-07 01:39 | 29.61344 | -83.57512 | 33074 ft | 508 kts | 156° |
| 2026-05-07 01:40 | 29.55201 | -83.53497 | 33076 ft | 508 kts | 156° |
| 2026-05-07 01:40 | 29.49051 | -83.49480 | 33085 ft | 508 kts | 156° |
| 2026-05-07 01:41 | 29.42903 | -83.45473 | 33077 ft | 508 kts | 156° |
| 2026-05-07 01:41 | 29.36757 | -83.41469 | 33062 ft | 508 kts | 156° |
| 2026-05-07 01:42 | 29.30604 | -83.37483 | 33070 ft | 508 kts | 156° |
| 2026-05-07 01:42 | 29.24457 | -83.33493 | 33076 ft | 508 kts | 156° |
| 2026-05-07 01:43 | 29.18357 | -83.29496 | 33085 ft | 508 kts | 156° |
| 2026-05-07 01:43 | 29.12232 | -83.25458 | 33089 ft | 508 kts | 156° |
| 2026-05-07 01:44 | 29.06107 | -83.21430 | 33066 ft | 508 kts | 155° |
| 2026-05-07 01:44 | 28.99982 | -83.17410 | 33080 ft | 508 kts | 155° |
| 2026-05-07 01:45 | 28.93840 | -83.13393 | 33093 ft | 508 kts | 155° |
| 2026-05-07 01:45 | 28.87703 | -83.09394 | 33094 ft | 508 kts | 155° |
| 2026-05-07 01:46 | 28.81564 | -83.05397 | 33090 ft | 508 kts | 155° |
| 2026-05-07 01:46 | 28.75422 | -83.01398 | 33073 ft | 508 kts | 155° |
| 2026-05-07 01:47 | 28.69277 | -82.97403 | 33080 ft | 508 kts | 155° |
| 2026-05-07 01:47 | 28.63141 | -82.93410 | 33087 ft | 508 kts | 155° |
| 2026-05-07 01:48 | 28.57039 | -82.89454 | 33091 ft | 508 kts | 155° |
| 2026-05-07 01:48 | 28.50901 | -82.85478 | 33088 ft | 508 kts | 155° |
| 2026-05-07 01:49 | 28.44758 | -82.81509 | 33066 ft | 507 kts | 155° |
| 2026-05-07 01:49 | 28.39656 | -82.78210 | 33079 ft | 507 kts | 155° |
| 2026-05-07 01:50 | 28.33518 | -82.74246 | 33088 ft | 508 kts | 155° |
| 2026-05-07 01:50 | 28.27370 | -82.70284 | 33083 ft | 508 kts | 155° |
| 2026-05-07 01:51 | 28.21218 | -82.66321 | 33075 ft | 508 kts | 155° |
| 2026-05-07 01:51 | 28.15067 | -82.62366 | 33064 ft | 508 kts | 155° |
| 2026-05-07 01:52 | 28.08913 | -82.58423 | 33082 ft | 508 kts | 155° |
| 2026-05-07 01:52 | 28.02754 | -82.54481 | 33092 ft | 508 kts | 155° |
| 2026-05-07 01:53 | 27.96375 | -82.51391 | 33096 ft | 499 kts | 168° |
| 2026-05-07 01:53 | 27.89749 | -82.49054 | 33088 ft | 499 kts | 168° |
| 2026-05-07 01:54 | 27.83113 | -82.46700 | 33071 ft | 499 kts | 167° |
| 2026-05-07 01:54 | 27.76482 | -82.44342 | 33077 ft | 499 kts | 167° |
| 2026-05-07 01:55 | 27.69849 | -82.41992 | 33081 ft | 499 kts | 167° |
| 2026-05-07 01:55 | 27.63266 | -82.39666 | 33086 ft | 499 kts | 167° |
| 2026-05-07 01:56 | 27.56642 | -82.37325 | 33080 ft | 499 kts | 167° |
| 2026-05-07 01:56 | 27.50009 | -82.34985 | 33080 ft | 499 kts | 167° |
| 2026-05-07 01:57 | 27.43380 | -82.32653 | 33078 ft | 499 kts | 167° |
| 2026-05-07 01:57 | 27.36827 | -82.30035 | 33076 ft | 504 kts | 158° |
| 2026-05-07 01:58 | 27.30680 | -82.26181 | 33077 ft | 506 kts | 154° |
| 2026-05-07 01:58 | 27.24551 | -82.22278 | 33060 ft | 506 kts | 154° |
| 2026-05-07 01:59 | 27.18445 | -82.18413 | 33067 ft | 506 kts | 154° |
| 2026-05-07 01:59 | 27.12309 | -82.14539 | 33078 ft | 506 kts | 154° |
| 2026-05-07 01:59 | 27.09226 | -82.12593 | 32573 ft | 508 kts | 154° |
| 2026-05-07 02:00 | 27.06172 | -82.10661 | 32313 ft | 500 kts | 154° |
| 2026-05-07 02:00 | 27.03153 | -82.08751 | 32071 ft | 498 kts | 154° |
| 2026-05-07 02:00 | 27.00132 | -82.06842 | 31831 ft | 498 kts | 154° |
| 2026-05-07 02:00 | 26.97174 | -82.04811 | 31474 ft | 500 kts | 148° |
| 2026-05-07 02:01 | 26.94448 | -82.02323 | 30513 ft | 512 kts | 137° |
| 2026-05-07 02:01 | 26.92015 | -81.99413 | 29961 ft | 510 kts | 134° |
| 2026-05-07 02:01 | 26.89600 | -81.96502 | 29259 ft | 508 kts | 135° |
| 2026-05-07 02:01 | 26.87178 | -81.93627 | 28601 ft | 505 kts | 135° |
| 2026-05-07 02:02 | 26.84758 | -81.90788 | 27946 ft | 503 kts | 135° |
| 2026-05-07 02:02 | 26.82338 | -81.87966 | 27296 ft | 500 kts | 135° |
| 2026-05-07 02:02 | 26.79937 | -81.85166 | 26654 ft | 497 kts | 135° |
| 2026-05-07 02:02 | 26.77594 | -81.82420 | 26235 ft | 489 kts | 135° |
| 2026-05-07 02:03 | 26.75250 | -81.79664 | 26040 ft | 476 kts | 135° |
| 2026-05-07 02:03 | 26.73030 | -81.77070 | 26066 ft | 461 kts | 135° |
| 2026-05-07 02:03 | 26.70825 | -81.74503 | 25695 ft | 457 kts | 136° |
| 2026-05-07 02:03 | 26.68629 | -81.71951 | 25190 ft | 454 kts | 136° |
| 2026-05-07 02:04 | 26.66447 | -81.69421 | 24722 ft | 450 kts | 136° |
| 2026-05-07 02:04 | 26.64281 | -81.66912 | 24254 ft | 446 kts | 136° |
| 2026-05-07 02:04 | 26.62256 | -81.64297 | 23792 ft | 444 kts | 127° |
| 2026-05-07 02:04 | 26.60413 | -81.61550 | 23301 ft | 440 kts | 127° |
| 2026-05-07 02:05 | 26.58589 | -81.58828 | 22799 ft | 435 kts | 127° |
| 2026-05-07 02:05 | 26.56783 | -81.56134 | 22281 ft | 431 kts | 127° |
| 2026-05-07 02:05 | 26.54991 | -81.53470 | 21806 ft | 427 kts | 127° |
| 2026-05-07 02:05 | 26.53216 | -81.50836 | 21333 ft | 422 kts | 127° |
| 2026-05-07 02:06 | 26.51457 | -81.48229 | 20870 ft | 418 kts | 127° |
| 2026-05-07 02:06 | 26.49715 | -81.45651 | 20426 ft | 414 kts | 127° |
| 2026-05-07 02:06 | 26.47993 | -81.43100 | 19982 ft | 410 kts | 127° |
| 2026-05-07 02:06 | 26.46283 | -81.40570 | 19550 ft | 406 kts | 127° |
| 2026-05-07 02:07 | 26.44590 | -81.38068 | 19125 ft | 402 kts | 127° |
| 2026-05-07 02:07 | 26.41251 | -81.33129 | 18301 ft | 395 kts | 127° |
| 2026-05-07 02:07 | 26.39565 | -81.30726 | 17830 ft | 391 kts | 129° |
| 2026-05-07 02:08 | 26.37844 | -81.28393 | 17390 ft | 388 kts | 130° |
| 2026-05-07 02:08 | 26.36107 | -81.26106 | 16935 ft | 384 kts | 130° |
| 2026-05-07 02:08 | 26.34379 | -81.23852 | 16507 ft | 381 kts | 130° |
| 2026-05-07 02:08 | 26.32664 | -81.21611 | 16088 ft | 378 kts | 129° |
| 2026-05-07 02:09 | 26.30972 | -81.19387 | 15674 ft | 375 kts | 129° |
| 2026-05-07 02:09 | 26.29302 | -81.17175 | 15254 ft | 371 kts | 129° |
| 2026-05-07 02:09 | 26.27654 | -81.14980 | 14890 ft | 367 kts | 128° |
| 2026-05-07 02:09 | 26.26022 | -81.12818 | 14506 ft | 363 kts | 128° |
| 2026-05-07 02:10 | 26.24399 | -81.10679 | 14120 ft | 360 kts | 128° |
| 2026-05-07 02:10 | 26.22790 | -81.08564 | 13722 ft | 356 kts | 128° |
| 2026-05-07 02:10 | 26.21192 | -81.06464 | 13284 ft | 353 kts | 128° |
| 2026-05-07 02:10 | 26.19608 | -81.04383 | 12871 ft | 350 kts | 128° |
| 2026-05-07 02:11 | 26.18061 | -81.02352 | 12735 ft | 338 kts | 128° |
| 2026-05-07 02:11 | 26.16565 | -81.00389 | 12608 ft | 327 kts | 128° |
| 2026-05-07 02:11 | 26.15234 | -80.98404 | 12462 ft | 314 kts | 117° |
| 2026-05-07 02:11 | 26.14418 | -80.96200 | 12027 ft | 305 kts | 102° |
| 2026-05-07 02:12 | 26.14024 | -80.93928 | 11465 ft | 302 kts | 99° |
| 2026-05-07 02:12 | 26.13651 | -80.91630 | 10822 ft | 301 kts | 99° |
| 2026-05-07 02:12 | 26.13277 | -80.89349 | 10198 ft | 298 kts | 99° |
| 2026-05-07 02:12 | 26.12903 | -80.87091 | 9537 ft | 295 kts | 99° |
| 2026-05-07 02:13 | 26.12530 | -80.84853 | 8879 ft | 293 kts | 99° |
| 2026-05-07 02:13 | 26.12160 | -80.82635 | 8219 ft | 290 kts | 99° |
| 2026-05-07 02:13 | 26.11793 | -80.80430 | 7565 ft | 288 kts | 99° |
| 2026-05-07 02:13 | 26.11441 | -80.78247 | 6927 ft | 285 kts | 98° |
| 2026-05-07 02:14 | 26.11130 | -80.76080 | 6426 ft | 281 kts | 98° |
| 2026-05-07 02:14 | 26.10845 | -80.73963 | 6288 ft | 275 kts | 97° |
| 2026-05-07 02:14 | 26.10568 | -80.71869 | 6176 ft | 273 kts | 97° |
| 2026-05-07 02:14 | 26.10290 | -80.69778 | 6057 ft | 273 kts | 97° |
| 2026-05-07 02:15 | 26.10008 | -80.67691 | 5924 ft | 273 kts | 97° |
| 2026-05-07 02:15 | 26.09722 | -80.65606 | 5807 ft | 272 kts | 97° |
| 2026-05-07 02:15 | 26.09432 | -80.63521 | 5681 ft | 273 kts | 98° |
| 2026-05-07 02:15 | 26.09140 | -80.61440 | 5606 ft | 273 kts | 97° |
| 2026-05-07 02:16 | 26.08848 | -80.59355 | 5517 ft | 273 kts | 98° |
| 2026-05-07 02:16 | 26.08556 | -80.57266 | 5378 ft | 273 kts | 97° |
| 2026-05-07 02:16 | 26.08265 | -80.55179 | 5223 ft | 273 kts | 97° |
| 2026-05-07 02:16 | 26.07969 | -80.53089 | 5089 ft | 275 kts | 96° |
| 2026-05-07 02:17 | 26.07821 | -80.50964 | 4998 ft | 276 kts | 90° |
| 2026-05-07 02:17 | 26.07819 | -80.48827 | 5006 ft | 277 kts | 88° |
| 2026-05-07 02:17 | 26.07826 | -80.46731 | 4989 ft | 264 kts | 89° |
| 2026-05-07 02:17 | 26.07821 | -80.44744 | 4759 ft | 258 kts | 89° |
| 2026-05-07 02:18 | 26.07813 | -80.42756 | 4443 ft | 256 kts | 89° |
| 2026-05-07 02:18 | 26.07805 | -80.40792 | 4116 ft | 250 kts | 89° |
| 2026-05-07 02:18 | 26.07798 | -80.38905 | 3808 ft | 239 kts | 89° |
| 2026-05-07 02:18 | 26.07791 | -80.37088 | 3500 ft | 230 kts | 90° |
| 2026-05-07 02:19 | 26.07784 | -80.35349 | 3225 ft | 218 kts | 90° |
| 2026-05-07 02:19 | 26.07777 | -80.33724 | 2944 ft | 203 kts | 91° |
| 2026-05-07 02:19 | 26.07771 | -80.32196 | 2683 ft | 193 kts | 91° |
| 2026-05-07 02:19 | 26.07764 | -80.30721 | 2437 ft | 189 kts | 91° |
| 2026-05-07 02:20 | 26.07758 | -80.29275 | 2198 ft | 185 kts | 92° |
| 2026-05-07 02:20 | 26.07752 | -80.27911 | 1973 ft | 169 kts | 91° |
| 2026-05-07 02:20 | 26.07746 | -80.26626 | 1752 ft | 163 kts | 92° |
| 2026-05-07 02:20 | 26.07740 | -80.25376 | 1540 ft | 160 kts | 91° |
| 2026-05-07 02:21 | 26.07734 | -80.24170 | 1342 ft | 151 kts | 92° |
| 2026-05-07 02:21 | 26.07728 | -80.23021 | 1145 ft | 147 kts | 91° |
| 2026-05-07 02:21 | 26.07722 | -80.21902 | 965 ft | 146 kts | 91° |
| 2026-05-07 02:21 | 26.07712 | -80.20762 | 781 ft | 145 kts | 92° |
| 2026-05-07 02:22 | 26.07688 | -80.19660 | 634 ft | 144 kts | 90° |
| 2026-05-07 02:22 | 26.07698 | -80.18548 | 444 ft | 143 kts | 91° |
| 2026-05-07 02:22 | 26.07691 | -80.17449 | 248 ft | 141 kts | 89° |
| 2026-05-07 02:22 | 26.07695 | -80.16348 | 38 ft | 142 kts | 91° |
| 2026-05-07 02:23 | 26.07693 | -80.15342 | 21 ft | 119 kts | 95° |
| 2026-05-07 02:23 | 26.07678 | -80.14547 | 19 ft | 70 kts | 91° |
| 2026-05-07 02:23 | 26.07671 | -80.14256 | 20 ft | 17 kts | 104° |
| 2026-05-07 02:23 | 26.07649 | -80.14233 | 19 ft | 13 kts | 159° |
| 2026-05-07 02:24 | 26.07583 | -80.14235 | 17 ft | 0 kts | 186° |
| 2026-05-07 02:24 | 26.07552 | -80.14235 | 17 ft | 10 kts | 178° |
| 2026-05-07 02:24 | 26.07476 | -80.14208 | 16 ft | 15 kts | 152° |
| 2026-05-07 02:24 | 26.07400 | -80.14184 | 16 ft | 9 kts | 176° |
| 2026-05-07 02:25 | 26.07348 | -80.14209 | 16 ft | 7 kts | 239° |
| 2026-05-07 02:25 | 26.07343 | -80.14251 | 16 ft | 5 kts | 268° |
| 2026-05-07 02:25 | 26.07343 | -80.14256 | 16 ft | 0 kts | 269° |